Impacts TAF Board INFO
FOR SITUATIONAL AWARENESS. NOT TO BE USED FOR FLIGHT PLANNING PURPOSES.
IDs:

KNEW - New Orleans/Lakefron, LA, US

Issued at 0540 UTC 20 Feb 2018
Updated at 0755 UTC 20 Feb 2018
Potential Impact None Slight Moderate High
Time<<20/20Z 20/21Z 20/22Z 20/23Z 21/00Z 21/01Z 21/02Z 21/03Z 21/04Z 21/05Z 21/06Z 21/07Z 21/08Z>>
Type PRVL PRVL PRVL PRVL PRVL PRVL PRVL PRVL PRVL PRVL
VIS >6 >6 >6 >6 >6 >6 >6 >6 >6 4
CIG 45 45 45 45 80 80 80 80 80 40
Cover BKN BKN BKN BKN BKN BKN BKN BKN BKN BKN
FltCat VFR VFR VFR VFR VFR VFR VFR VFR VFR MVFR
WX -- -- -- -- -- -- -- -- -- BR
WDir 160 160 160 160 140 140 140 140 140 150
WSpd 13 13 13 13 9 9 9 9 9 7
WGst -- -- -- -- -- -- -- -- -- --

Raw TAF
KNEW 200540Z 2006/2106 14011KT P6SM FEW025 SCT250
  FM200900 14008KT P6SM BKN030
  FM201200 13009KT 6SM BR BKN025
  FM201600 16013KT P6SM BKN045
  FM210000 14009KT P6SM BKN080
  FM210500 15007KT 4SM BR BKN040


METAR Board

FOR SITUATIONAL AWARENESS. NOT TO BE USED FOR FLIGHT PLANNING PURPOSES.